Time;durP1;ratioP1;P1;durP2;ratioP2;P2;SDS_P1;SDS_P2;PMS_P1;PMS_P2;Temp;Humidity;BMP_temperature;BMP_pressure;BME280_temperature;BME280_humidity;BME280_pressure;Samples;Min_cycle;Max_cycle;Signal;HPM_P1;HPM_P2
2022/03/11 00:00:58;;;;;;;;;13.00;10.75;;;;;14.08;35.99;100156.16;6148543;22;101951;-96
2022/03/11 00:03:31;;;;;;;;;2.75;2.00;;;;;14.06;36.73;100166.34;6121358;22;105256;-96
2022/03/11 00:05:59;;;;;;;;;12.00;10.00;;;;;14.02;36.48;100145.16;6115859;22;103867;-95
2022/03/11 00:08:28;;;;;;;;;10.00;9.50;;;;;14.01;36.37;100149.75;6139405;22;102233;-96
2022/03/11 00:10:56;;;;;;;;;12.75;10.50;;;;;14.02;36.43;100148.72;6070737;22;102117;-96
2022/03/11 00:13:26;;;;;;;;;11.25;9.00;;;;;13.98;35.97;100146.56;6096409;22;101908;-96
2022/03/11 00:15:54;;;;;;;;;13.75;10.75;;;;;13.99;36.32;100145.53;6126978;22;102174;-96
2022/03/11 00:18:23;;;;;;;;;8.75;7.75;;;;;13.95;36.15;100134.19;6029812;22;101687;-96
2022/03/11 00:20:51;;;;;;;;;15.75;10.50;;;;;13.95;36.29;100141.50;6042765;22;102355;-96
2022/03/11 00:23:19;;;;;;;;;11.50;10.25;;;;;13.89;36.06;100134.91;6080193;22;102177;-96
2022/03/11 00:25:47;;;;;;;;;11.50;10.00;;;;;13.87;36.42;100130.72;6057275;22;103750;-96
2022/03/11 00:28:15;;;;;;;;;10.50;9.00;;;;;13.89;36.51;100145.78;6064934;22;102219;-96
2022/03/11 00:30:43;;;;;;;;;8.00;8.00;;;;;13.89;36.26;100144.94;6093494;22;102733;-96
2022/03/11 00:33:11;;;;;;;;;10.00;9.00;;;;;13.83;36.40;100130.19;6059049;22;102882;-96
2022/03/11 00:35:39;;;;;;;;;9.25;9.00;;;;;13.83;36.27;100125.63;6117314;22;104074;-96
2022/03/11 00:38:07;;;;;;;;;11.00;9.75;;;;;13.91;36.23;100135.59;6092197;22;104893;-96
2022/03/11 00:40:35;;;;;;;;;9.75;6.00;;;;;13.82;35.79;100118.47;6044674;22;101755;-96
2022/03/11 00:43:03;;;;;;;;;12.75;11.75;;;;;13.81;36.27;100115.97;6143362;22;102329;-96
2022/03/11 00:45:33;;;;;;;;;7.50;7.50;;;;;13.81;36.27;100124.13;6114483;22;107602;-96
2022/03/11 00:48:02;;;;;;;;;11.00;10.00;;;;;13.77;36.05;100109.22;6037432;22;101689;-96
2022/03/11 00:50:30;;;;;;;;;8.75;8.50;;;;;13.76;36.14;100118.38;6054692;22;102435;-96
2022/03/11 00:52:58;;;;;;;;;10.25;8.00;;;;;13.77;36.01;100120.09;6074033;22;102577;-96
2022/03/11 00:55:27;;;;;;;;;14.25;10.00;;;;;13.75;36.06;100105.81;6053778;22;103638;-96
2022/03/11 00:57:58;;;;;;;;;9.00;7.50;;;;;13.75;35.97;100105.81;6084508;22;101794;-96
2022/03/11 01:00:26;;;;;;;;;10.00;9.50;;;;;13.82;36.12;100125.81;6120166;22;102398;-96
2022/03/11 01:02:54;;;;;;;;;9.75;9.75;;;;;13.76;35.75;100113.81;6107136;22;101997;-96
2022/03/11 01:05:22;;;;;;;;;9.00;8.00;;;;;13.75;36.45;100122.13;6100583;22;102970;-96
2022/03/11 01:07:51;;;;;;;;;9.50;8.25;;;;;13.79;35.57;100129.72;6096827;22;101706;-96
2022/03/11 01:10:18;;;;;;;;;8.75;6.75;;;;;13.73;36.59;100124.22;6103756;22;101907;-96
2022/03/11 01:12:47;;;;;;;;;12.75;9.50;;;;;13.70;35.98;100102.81;6136602;22;102583;-96
2022/03/11 01:15:15;;;;;;;;;9.00;8.00;;;;;13.68;36.01;100119.31;6140431;22;104574;-96
2022/03/11 01:17:43;;;;;;;;;8.50;7.00;;;;;13.74;35.83;100120.44;6122647;22;101979;-96
2022/03/11 01:20:12;;;;;;;;;9.25;8.50;;;;;13.68;35.88;100118.47;6151309;22;101194;-96
2022/03/11 01:22:41;;;;;;;;;11.00;9.75;;;;;13.63;36.02;100107.31;6173887;22;102295;-96
2022/03/11 01:25:09;;;;;;;;;9.50;8.25;;;;;13.66;35.73;100101.50;6147332;22;103618;-96
2022/03/11 01:27:37;;;;;;;;;10.25;10.00;;;;;13.59;35.85;100097.84;6137232;22;101934;-96
2022/03/11 01:30:06;;;;;;;;;9.00;8.25;;;;;13.63;35.91;100110.88;6126760;22;101730;-96
2022/03/11 01:32:35;;;;;;;;;11.00;8.00;;;;;13.58;35.82;100098.84;6116174;22;102151;-96
2022/03/11 01:35:04;;;;;;;;;11.00;10.00;;;;;13.61;36.23;100093.88;6073246;22;110564;-96
2022/03/11 01:37:32;;;;;;;;;11.00;8.00;;;;;13.60;36.26;100103.06;6141324;22;101782;-96
2022/03/11 01:40:00;;;;;;;;;8.50;6.50;;;;;13.59;35.71;100105.97;6216476;22;101155;-96
2022/03/11 01:42:34;;;;;;;;;12.50;11.00;;;;;13.55;36.39;100099.22;6168652;22;101846;-96
2022/03/11 01:45:02;;;;;;;;;13.75;10.00;;;;;13.61;35.50;100106.63;6191119;22;104005;-96
2022/03/11 01:47:29;;;;;;;;;10.50;8.75;;;;;13.57;35.60;100108.03;6189935;22;101911;-96
2022/03/11 01:49:58;;;;;;;;;10.75;9.75;;;;;13.59;36.02;100116.84;6190032;22;101743;-96
2022/03/11 01:52:27;;;;;;;;;12.50;9.00;;;;;13.49;35.35;100099.94;6166156;22;102089;-96
2022/03/11 01:54:56;;;;;;;;;8.75;7.25;;;;;13.53;35.60;100115.72;6162524;22;103414;-96
2022/03/11 01:57:23;;;;;;;;;10.75;9.75;;;;;13.50;36.50;100101.66;6162801;22;102048;-96
2022/03/11 01:59:52;;;;;;;;;11.00;9.25;;;;;13.49;35.77;100105.38;6163228;22;102660;-96
2022/03/11 02:02:20;;;;;;;;;8.50;8.00;;;;;13.49;35.73;100106.22;6165465;22;102006;-96
2022/03/11 02:04:48;;;;;;;;;8.00;6.50;;;;;13.45;36.24;100104.06;6162509;22;102059;-96
2022/03/11 02:07:16;;;;;;;;;9.00;7.75;;;;;13.49;35.87;100111.66;6186971;22;101856;-96
2022/03/11 02:09:44;;;;;;;;;13.25;9.50;;;;;13.44;35.63;100105.94;6163808;22;102334;-96
2022/03/11 02:12:27;;;;;;;;;8.00;6.50;;;;;13.30;36.13;100091.28;6212868;22;102663;-96
2022/03/11 02:14:55;;;;;;;;;11.50;9.75;;;;;13.42;35.51;100109.88;6188397;22;102114;-96
2022/03/11 02:17:23;;;;;;;;;9.75;9.00;;;;;13.38;35.90;100110.22;6138987;22;101962;-96
2022/03/11 02:19:51;;;;;;;;;10.00;8.75;;;;;13.37;36.20;100103.09;6137300;22;101855;-96
2022/03/11 02:22:21;;;;;;;;;9.00;9.00;;;;;13.39;35.94;100111.91;6183241;22;102214;-96
2022/03/11 02:24:53;;;;;;;;;10.75;9.75;;;;;13.42;36.22;100118.84;6157927;22;103117;-96
2022/03/11 02:27:21;;;;;;;;;9.00;9.00;;;;;13.40;35.81;100112.75;6158140;22;101749;-96
2022/03/11 02:29:49;;;;;;;;;9.00;8.00;;;;;13.36;35.94;100112.28;6160425;22;101988;-96
2022/03/11 02:32:17;;;;;;;;;12.00;10.00;;;;;13.39;36.14;100117.34;6181677;22;102164;-96
2022/03/11 02:34:45;;;;;;;;;9.75;8.50;;;;;13.38;35.98;100115.66;6181561;22;104362;-96
2022/03/11 02:37:14;;;;;;;;;9.50;9.00;;;;;13.35;36.17;100121.47;6131493;22;102040;-96
2022/03/11 02:39:41;;;;;;;;;7.00;7.00;;;;;13.37;36.31;100122.09;6206563;22;102356;-96
2022/03/11 02:42:10;;;;;;;;;9.50;8.00;;;;;13.30;36.50;100112.16;6158264;22;102092;-96
2022/03/11 02:44:38;;;;;;;;;8.75;8.00;;;;;13.33;35.53;100118.06;6178986;22;103217;-96
2022/03/11 02:47:06;;;;;;;;;8.75;8.75;;;;;13.34;36.23;100119.75;6181063;22;101756;-96
2022/03/11 02:49:34;;;;;;;;;12.25;10.25;;;;;13.32;35.77;100107.41;6180951;22;101960;-96
2022/03/11 02:52:03;;;;;;;;;8.75;8.75;;;;;13.27;36.02;100107.94;6183476;22;101863;-96
2022/03/11 02:54:30;;;;;;;;;8.00;8.00;;;;;13.25;36.40;100118.13;6205764;22;104226;-96
2022/03/11 02:56:58;;;;;;;;;10.50;9.00;;;;;13.27;36.06;100112.53;6157435;22;102163;-96
2022/03/11 02:59:28;;;;;;;;;11.00;9.00;;;;;13.24;35.89;100119.16;6181642;22;102440;-96
2022/03/11 03:01:56;;;;;;;;;11.00;8.75;;;;;13.24;35.85;100118.31;6181592;22;102374;-96
2022/03/11 03:04:24;;;;;;;;;8.00;7.75;;;;;13.22;36.11;100110.34;6156178;22;104078;-96
2022/03/11 03:06:52;;;;;;;;;9.00;8.50;;;;;13.29;35.65;100118.63;6181774;22;102522;-96
2022/03/11 03:09:20;;;;;;;;;9.75;9.00;;;;;13.22;35.38;100104.94;6130955;22;102079;-96
2022/03/11 03:11:49;;;;;;;;;10.00;6.75;;;;;13.36;36.19;100117.72;6183060;22;102337;-96
2022/03/11 03:14:17;;;;;;;;;8.00;8.00;;;;;13.34;35.78;100119.75;6180299;22;104226;-96
2022/03/11 03:16:45;;;;;;;;;10.75;9.25;;;;;13.36;35.60;100112.28;6178489;22;102480;-96
2022/03/11 03:19:13;;;;;;;;;9.00;7.00;;;;;13.45;35.85;100109.50;6201657;22;102266;-96
2022/03/11 03:21:42;;;;;;;;;9.75;8.75;;;;;13.52;35.37;100115.88;6181568;22;102423;-96
2022/03/11 03:24:10;;;;;;;;;9.00;8.00;;;;;13.51;34.94;100106.88;6177550;22;103908;-95
2022/03/11 03:26:37;;;;;;;;;9.00;9.00;;;;;13.58;35.68;100110.56;6181394;22;102187;-96
2022/03/11 03:29:05;;;;;;;;;10.00;9.00;;;;;13.63;35.62;100112.75;6154136;22;102373;-96
2022/03/11 03:31:32;;;;;;;;;7.25;7.00;;;;;13.61;35.34;100107.47;6180319;22;102333;-96
2022/03/11 03:34:00;;;;;;;;;10.50;8.00;;;;;13.64;34.41;100115.28;6177369;22;104218;-96
2022/03/11 03:36:28;;;;;;;;;11.25;10.00;;;;;13.63;34.35;100108.16;6178056;22;102024;-96
2022/03/11 03:38:56;;;;;;;;;8.50;8.00;;;;;13.69;34.79;100117.41;6177718;22;102429;-96
2022/03/11 03:41:24;;;;;;;;;9.25;7.00;;;;;13.70;34.59;100116.41;6156940;22;102039;-96
2022/03/11 03:43:52;;;;;;;;;9.25;8.00;;;;;13.69;34.69;100107.41;6156737;22;104036;-96
2022/03/11 03:46:19;;;;;;;;;6.75;5.25;;;;;13.72;34.64;100108.91;6153989;22;102129;-95
2022/03/11 03:48:47;;;;;;;;;7.75;7.75;;;;;13.72;34.67;100111.63;6130454;22;102005;-96
2022/03/11 03:51:15;;;;;;;;;8.75;8.00;;;;;13.73;34.23;100118.78;6156369;22;102256;-96
2022/03/11 03:53:43;;;;;;;;;9.75;8.75;;;;;13.65;35.06;100099.78;6153303;22;102067;-95
2022/03/11 03:56:12;;;;;;;;;14.00;7.75;;;;;13.69;34.33;100114.69;6153178;22;102455;-96
2022/03/11 03:58:40;;;;;;;;;8.00;7.75;;;;;13.70;34.93;100122.69;6154541;22;102322;-96
2022/03/11 04:01:07;;;;;;;;;9.00;7.25;;;;;13.69;34.90;100118.28;6154925;22;102119;-96
2022/03/11 04:03:37;;;;;;;;;7.25;6.25;;;;;13.67;35.31;100124.94;6182976;22;103244;-96
2022/03/11 04:06:05;;;;;;;;;10.50;9.50;;;;;13.66;34.86;100129.53;6178139;22;102388;-96
2022/03/11 04:08:33;;;;;;;;;9.25;9.00;;;;;13.62;35.05;100113.75;6178971;22;102161;-96
2022/03/11 04:11:01;;;;;;;;;10.75;10.00;;;;;13.64;34.82;100122.59;6149575;22;102464;-96
2022/03/11 04:13:29;;;;;;;;;5.50;5.00;;;;;13.58;34.81;100115.16;6179582;22;104130;-96
2022/03/11 04:15:57;;;;;;;;;10.25;9.75;;;;;13.58;34.54;100132.31;6127691;22;102064;-96
2022/03/11 04:18:25;;;;;;;;;5.75;5.75;;;;;13.62;34.65;100132.78;6128748;22;102324;-96
2022/03/11 04:20:53;;;;;;;;;9.00;6.25;;;;;13.55;34.76;100116.38;6155130;22;102085;-96
2022/03/11 04:23:22;;;;;;;;;6.50;6.00;;;;;13.52;35.24;100116.72;6178482;22;104826;-96
2022/03/11 04:25:50;;;;;;;;;7.75;7.75;;;;;13.52;35.21;100118.59;6179715;22;102013;-96
2022/03/11 04:28:18;;;;;;;;;9.50;8.00;;;;;13.45;34.97;100115.78;6152530;22;102057;-96
2022/03/11 04:30:45;;;;;;;;;8.00;7.00;;;;;13.45;34.88;100118.50;6129916;22;102314;-96
2022/03/11 04:33:13;;;;;;;;;6.50;5.25;;;;;13.46;35.37;100132.94;6177324;22;103925;-96
2022/03/11 04:35:41;;;;;;;;;8.25;6.50;;;;;13.43;34.56;100122.41;6178860;22;102539;-96
2022/03/11 04:38:10;;;;;;;;;9.00;8.00;;;;;13.48;35.17;100129.00;6129078;22;102794;-96
2022/03/11 04:40:37;;;;;;;;;8.00;6.75;;;;;13.47;35.17;100129.16;6156307;22;102293;-96
2022/03/11 04:43:05;;;;;;;;;5.75;5.00;;;;;13.44;35.56;100130.38;6152263;22;103920;-97
2022/03/11 04:45:33;;;;;;;;;4.50;4.25;;;;;13.42;35.31;100134.34;6153597;22;101944;-96
2022/03/11 04:48:01;;;;;;;;;8.25;6.50;;;;;13.40;35.04;100126.34;6153271;22;102430;-96
2022/03/11 04:50:29;;;;;;;;;7.50;6.50;;;;;13.26;35.07;100110.84;6180715;22;102156;-95
2022/03/11 04:52:57;;;;;;;;;10.25;6.50;;;;;13.40;35.12;100142.66;6153308;22;104229;-96
2022/03/11 04:55:25;;;;;;;;;8.00;5.50;;;;;13.38;34.78;100128.38;6153022;22;102188;-96
2022/03/11 04:57:52;;;;;;;;;6.50;6.50;;;;;13.38;35.25;100142.81;6178937;22;102157;-96
2022/03/11 05:00:20;;;;;;;;;6.25;6.25;;;;;13.33;34.78;100128.94;6128292;22;102345;-96
2022/03/11 05:02:50;;;;;;;;;8.75;8.00;;;;;13.30;34.65;100118.44;6129874;22;104111;-96
2022/03/11 05:05:18;;;;;;;;;7.00;6.50;;;;;13.30;34.76;100120.31;6128132;22;102361;-96
2022/03/11 05:07:46;;;;;;;;;8.25;6.75;;;;;13.26;34.87;100121.69;6154440;22;102628;-96
2022/03/11 05:10:14;;;;;;;;;8.00;7.75;;;;;13.31;35.27;100130.16;6179412;22;102329;-95
2022/03/11 05:12:42;;;;;;;;;8.25;6.25;;;;;13.19;34.96;100120.75;6127536;22;104120;-96
2022/03/11 05:15:10;;;;;;;;;8.75;8.00;;;;;13.18;35.64;100130.75;6126737;22;102302;-96
2022/03/11 05:17:40;;;;;;;;;9.25;9.00;;;;;13.13;35.06;100125.03;6154310;22;101924;-96
2022/03/11 05:20:08;;;;;;;;;7.25;5.75;;;;;13.16;35.17;100132.78;6155789;22;102379;-96
2022/03/11 05:22:36;;;;;;;;;8.00;6.50;;;;;13.19;34.92;100137.84;6179621;22;102175;-96
2022/03/11 05:25:05;;;;;;;;;7.50;6.75;;;;;13.24;34.97;100138.16;6154679;22;102330;-96
2022/03/11 05:27:34;;;;;;;;;8.75;6.25;;;;;13.25;34.70;100145.31;6132556;22;102238;-96
2022/03/11 05:30:01;;;;;;;;;9.00;7.50;;;;;13.17;35.27;100129.06;6156853;22;102504;-96
2022/03/11 05:32:29;;;;;;;;;8.25;6.25;;;;;13.16;34.73;100124.66;6132973;22;105089;-96
2022/03/11 05:34:58;;;;;;;;;6.25;5.00;;;;;13.14;35.62;100129.44;6157541;22;102178;-96
2022/03/11 05:37:25;;;;;;;;;8.25;7.00;;;;;13.15;35.25;100133.00;6106979;22;102412;-96
2022/03/11 05:39:53;;;;;;;;;8.00;5.00;;;;;13.11;35.56;100137.91;6158016;22;102060;-96
2022/03/11 05:42:21;;;;;;;;;8.00;5.00;;;;;13.13;35.15;100138.59;6132535;22;104075;-96
2022/03/11 05:44:49;;;;;;;;;8.50;5.50;;;;;13.13;34.71;100137.75;6133523;22;101939;-96
2022/03/11 05:47:17;;;;;;;;;6.25;6.25;;;;;13.10;34.71;100133.50;6134202;22;101999;-96
2022/03/11 05:49:45;;;;;;;;;8.75;8.00;;;;;13.05;35.17;100118.78;6158796;22;102380;-96
2022/03/11 05:52:13;;;;;;;;;8.25;7.75;;;;;13.01;35.05;100128.31;6132519;22;102046;-96
2022/03/11 05:54:41;;;;;;;;;8.25;6.25;;;;;12.98;34.59;100126.78;6135370;22;101677;-96
2022/03/11 05:57:09;;;;;;;;;7.00;6.75;;;;;12.95;34.89;100136.13;6132020;22;102303;-96
2022/03/11 05:59:39;;;;;;;;;9.25;7.25;;;;;12.97;35.00;100138.66;6184690;22;102121;-96
2022/03/11 06:02:08;;;;;;;;;9.50;8.75;;;;;12.96;35.41;100142.41;6157497;22;102081;-96
2022/03/11 06:04:37;;;;;;;;;10.50;8.50;;;;;12.96;34.96;100147.84;6134186;22;102024;-96
2022/03/11 06:07:05;;;;;;;;;5.50;5.00;;;;;13.01;35.51;100160.88;6133936;22;101813;-96
2022/03/11 06:09:33;;;;;;;;;7.50;5.00;;;;;12.97;34.83;100157.66;6158460;22;101976;-96
2022/03/11 06:12:01;;;;;;;;;7.50;6.00;;;;;13.01;34.71;100156.31;6148885;22;103332;-96
2022/03/11 06:14:29;;;;;;;;;9.75;8.00;;;;;12.99;35.01;100155.63;6184747;22;102098;-96
2022/03/11 06:16:57;;;;;;;;;7.75;5.25;;;;;12.99;34.71;100161.06;6207141;22;101959;-96
2022/03/11 06:19:25;;;;;;;;;10.50;7.50;;;;;12.96;35.43;100159.56;6185927;22;101935;-96
2022/03/11 06:21:55;;;;;;;;;4.25;3.00;;;;;12.95;35.03;100159.72;6182567;22;105870;-96
2022/03/11 06:24:22;;;;;;;;;5.50;5.00;;;;;12.97;34.88;100160.38;6184799;22;101701;-96
2022/03/11 06:26:52;;;;;;;;;8.00;7.25;;;;;12.92;35.29;100154.66;6187900;22;102182;-96
2022/03/11 06:29:19;;;;;;;;;7.75;7.50;;;;;12.94;34.82;100160.75;6190227;22;102063;-96
2022/03/11 06:31:47;;;;;;;;;7.00;6.00;;;;;12.87;35.24;100159.78;6187155;22;102065;-96
2022/03/11 06:34:15;;;;;;;;;7.50;5.50;;;;;12.86;35.43;100163.50;6161587;22;101851;-96
2022/03/11 06:36:43;;;;;;;;;8.00;7.00;;;;;12.86;35.09;100155.38;6187449;22;101927;-96
2022/03/11 06:39:13;;;;;;;;;8.75;7.25;;;;;12.90;34.85;100164.84;6160834;22;102067;-96
2022/03/11 06:41:41;;;;;;;;;8.00;7.25;;;;;12.87;34.64;100165.19;6186582;22;102972;-96
2022/03/11 06:44:09;;;;;;;;;5.00;5.00;;;;;12.84;34.95;100173.69;6185837;22;102148;-96
2022/03/11 06:46:36;;;;;;;;;8.25;5.25;;;;;12.77;34.78;100159.13;6186566;22;101971;-96
2022/03/11 06:49:05;;;;;;;;;8.50;7.25;;;;;12.80;35.39;100161.50;6208401;22;102111;-96
2022/03/11 06:51:34;;;;;;;;;7.75;5.00;;;;;12.82;35.22;100162.16;6184929;22;103817;-96
2022/03/11 06:54:04;;;;;;;;;6.25;5.75;;;;;12.83;34.72;100164.69;6186678;22;102005;-96
2022/03/11 06:56:34;;;;;;;;;8.50;8.00;;;;;12.81;34.55;100169.47;6188931;22;101823;-96
2022/03/11 06:59:24;;;;;;;;;9.00;7.00;;;;;12.89;34.42;100179.44;6165564;22;102308;-96
2022/03/11 07:01:52;;;;;;;;;8.25;7.00;;;;;12.85;35.17;100168.09;6211495;22;102947;-96
2022/03/11 07:04:34;;;;;;;;;6.75;5.00;;;;;12.79;34.42;100167.94;6214859;22;102569;-96
2022/03/11 07:07:03;;;;;;;;;10.25;9.00;;;;;12.87;34.68;100181.50;6191243;22;101959;-96
2022/03/11 07:09:30;;;;;;;;;8.00;7.00;;;;;12.85;35.07;100178.09;6195939;22;101691;-96
2022/03/11 07:12:01;;;;;;;;;8.75;5.25;;;;;12.88;34.93;100188.59;6216635;22;102261;-96
2022/03/11 07:14:49;;;;;;;;;8.25;7.75;;;;;12.80;34.76;100175.06;6150810;22;102159;-96
2022/03/11 07:17:17;;;;;;;;;8.00;5.00;;;;;12.81;35.38;100174.03;6225084;22;101751;-96
2022/03/11 07:19:47;;;;;;;;;8.00;5.50;;;;;12.84;34.92;100179.09;6178702;22;101712;-96
2022/03/11 07:22:15;;;;;;;;;8.00;6.50;;;;;12.79;34.37;100167.94;6225842;22;102936;-96
2022/03/11 07:25:07;;;;;;;;;3.75;3.75;;;;;12.79;35.20;100179.63;6208802;22;101125;-96
2022/03/11 07:28:11;;;;;;;;;8.50;7.25;;;;;12.84;35.24;100192.69;6204565;22;101710;-96
2022/03/11 07:30:44;;;;;;;;;7.00;6.75;;;;;12.74;35.24;100179.31;6237990;22;101784;-96
2022/03/11 07:33:12;;;;;;;;;5.00;4.00;;;;;12.77;35.42;100180.84;6181907;22;104220;-96
2022/03/11 07:39:08;;;;;;;;;8.00;5.50;;;;;12.74;35.44;100192.06;6228339;22;101080;-96
